Time;durP1;ratioP1;P1;durP2;ratioP2;P2;SDS_P1;SDS_P2;PMS_P1;PMS_P2;Temp;Humidity;BMP_temperature;BMP_pressure;BME280_temperature;BME280_humidity;BME280_pressure;Samples;Min_cycle;Max_cycle;Signal;HPM_P1;HPM_P2
2022/07/27 00:01:10;;;;;;;6.70;2.90;;;20.30;99.90;;;;;;5078846;28;20387;-53
2022/07/27 00:03:36;;;;;;;8.90;3.20;;;20.40;99.90;;;;;;5080701;28;20400;-52
2022/07/27 00:06:02;;;;;;;6.10;2.80;;;20.50;99.90;;;;;;5080056;28;20395;-51
2022/07/27 00:08:28;;;;;;;7.15;3.20;;;20.40;99.90;;;;;;5078443;28;20874;-51
2022/07/27 00:10:54;;;;;;;7.53;3.00;;;20.30;99.90;;;;;;5080843;28;20490;-59
2022/07/27 00:13:19;;;;;;;8.55;2.95;;;20.70;99.90;;;;;;5084563;28;20875;-51
2022/07/27 00:15:45;;;;;;;10.23;3.10;;;20.30;99.90;;;;;;5086452;28;20404;-51
2022/07/27 00:18:11;;;;;;;10.60;3.00;;;20.50;99.90;;;;;;5081964;28;20495;-51
2022/07/27 00:20:38;;;;;;;7.93;2.90;;;20.40;99.90;;;;;;5084864;28;20474;-51
2022/07/27 00:23:04;;;;;;;7.05;3.13;;;20.50;99.90;;;;;;5081913;28;20394;-52
2022/07/27 00:25:30;;;;;;;8.00;3.10;;;20.40;99.90;;;;;;5086027;28;20728;-51
2022/07/27 00:27:55;;;;;;;7.33;3.07;;;20.40;99.90;;;;;;5080519;28;20430;-52
2022/07/27 00:30:22;;;;;;;6.82;3.20;;;20.40;99.90;;;;;;5082324;28;20390;-51
2022/07/27 00:32:47;;;;;;;7.40;3.40;;;20.50;99.90;;;;;;5084169;28;20411;-51
2022/07/27 00:35:13;;;;;;;7.80;3.13;;;20.50;99.90;;;;;;5084806;28;20435;-51
2022/07/27 00:37:39;;;;;;;7.43;3.10;;;20.50;99.90;;;;;;5081842;28;20401;-52
2022/07/27 00:40:06;;;;;;;7.47;3.00;;;20.50;99.90;;;;;;5082464;28;20776;-51
2022/07/27 00:42:32;;;;;;;7.50;3.50;;;20.40;99.90;;;;;;5084353;28;20914;-51
2022/07/27 00:44:57;;;;;;;7.20;3.00;;;20.50;99.90;;;;;;5079155;28;20432;-51
2022/07/27 00:47:24;;;;;;;7.53;3.43;;;20.50;99.90;;;;;;5082674;28;20868;-52
2022/07/27 00:49:49;;;;;;;7.03;2.88;;;20.40;99.90;;;;;;5082265;28;20383;-51
2022/07/27 00:52:16;;;;;;;8.63;3.60;;;20.30;99.90;;;;;;5079060;28;20411;-51
2022/07/27 00:54:43;;;;;;;8.25;3.30;;;20.30;99.90;;;;;;5083722;28;20399;-52
2022/07/27 00:57:10;;;;;;;10.32;3.50;;;20.30;99.90;;;;;;5083093;28;20884;-51
2022/07/27 00:59:37;;;;;;;7.63;3.28;;;20.30;99.90;;;;;;5082081;28;20877;-51
2022/07/27 01:02:03;;;;;;;8.70;3.53;;;20.40;99.90;;;;;;5082564;28;20387;-52
2022/07/27 01:04:29;;;;;;;7.53;3.20;;;20.40;99.90;;;;;;5084045;28;20393;-51
2022/07/27 01:06:55;;;;;;;8.43;3.30;;;20.30;99.90;;;;;;5082447;28;20477;-59
2022/07/27 01:12:32;;;;;;;7.32;3.60;;;20.20;99.90;;;;;;5023792;28;20780;-55
2022/07/27 01:14:58;;;;;;;7.63;3.70;;;20.20;99.90;;;;;;5074370;28;20399;-54
2022/07/27 01:17:26;;;;;;;9.00;3.83;;;20.10;99.90;;;;;;5081858;28;20400;-57
2022/07/27 01:19:52;;;;;;;8.40;3.35;;;20.10;99.90;;;;;;5081686;28;20396;-56
2022/07/27 01:22:18;;;;;;;8.83;4.00;;;20.10;99.90;;;;;;5082298;28;20395;-54
2022/07/27 01:24:44;;;;;;;7.82;3.90;;;20.00;99.90;;;;;;5082106;28;20395;-54
2022/07/27 01:27:09;;;;;;;8.60;3.60;;;20.00;99.90;;;;;;5081407;28;20399;-54
2022/07/27 01:29:35;;;;;;;9.80;3.70;;;20.00;99.90;;;;;;5080835;28;20380;-54
2022/07/27 01:32:02;;;;;;;8.33;4.07;;;20.00;99.90;;;;;;5078284;28;20509;-54
2022/07/27 01:34:28;;;;;;;11.55;3.90;;;20.00;99.90;;;;;;5085050;28;20477;-52
2022/07/27 01:36:54;;;;;;;8.20;3.80;;;19.70;99.90;;;;;;5081500;28;20905;-58
2022/07/27 01:39:20;;;;;;;10.93;3.90;;;20.00;99.90;;;;;;5080211;28;20409;-54
2022/07/27 01:41:46;;;;;;;7.50;3.60;;;20.00;99.90;;;;;;5080990;28;20407;-54
2022/07/27 01:44:12;;;;;;;8.88;3.65;;;20.00;99.90;;;;;;5080344;28;20395;-53
2022/07/27 01:46:37;;;;;;;9.50;3.72;;;20.00;99.90;;;;;;5083739;28;20885;-53
2022/07/27 01:49:04;;;;;;;9.50;4.10;;;19.90;99.90;;;;;;5081064;28;20712;-53
2022/07/27 01:51:30;;;;;;;7.90;3.70;;;19.80;99.90;;;;;;5076380;28;20419;-53
2022/07/27 01:53:55;;;;;;;8.20;3.63;;;19.70;99.90;;;;;;5081789;28;20401;-58
2022/07/27 01:56:21;;;;;;;8.40;3.90;;;19.50;1.00;;;;;;5082832;28;20394;-53
2022/07/27 01:58:47;;;;;;;8.90;4.20;;;19.40;1.00;;;;;;5080617;28;20872;-53
2022/07/27 02:01:13;;;;;;;8.20;3.80;;;19.30;1.00;;;;;;5082408;28;20640;-54
2022/07/27 02:03:38;;;;;;;8.23;3.80;;;19.20;1.00;;;;;;5083461;28;20951;-53
2022/07/27 02:06:04;;;;;;;9.60;4.30;;;19.20;1.00;;;;;;5081021;28;20930;-53
2022/07/27 02:08:30;;;;;;;9.35;3.78;;;19.20;1.00;;;;;;5081988;28;20398;-55
2022/07/27 02:13:46;;;;;;;8.63;4.18;;;19.20;1.00;;;;;;5084082;28;20447;-53
2022/07/27 02:16:12;;;;;;;8.32;3.80;;;19.20;1.00;;;;;;5077969;28;20794;-53
2022/07/27 02:18:38;;;;;;;9.85;4.07;;;19.20;1.00;;;;;;5084287;28;20934;-54
2022/07/27 02:21:05;;;;;;;9.30;4.43;;;19.20;1.00;;;;;;5081686;28;20390;-54
2022/07/27 02:23:30;;;;;;;7.47;3.80;;;19.20;1.00;;;;;;5080008;28;20392;-54
2022/07/27 02:25:56;;;;;;;7.50;3.80;;;19.20;1.00;;;;;;5080440;28;20391;-59
2022/07/27 02:28:22;;;;;;;10.98;4.43;;;19.30;1.00;;;;;;5082096;28;20519;-53
2022/07/27 02:30:48;;;;;;;8.05;4.05;;;19.30;1.00;;;;;;5083137;28;20540;-53
2022/07/27 02:33:13;;;;;;;8.50;3.90;;;19.20;1.00;;;;;;5082827;28;20925;-53
2022/07/27 02:35:39;;;;;;;9.18;4.15;;;19.20;1.00;;;;;;5078035;28;20401;-51
2022/07/27 02:38:05;;;;;;;8.80;3.95;;;19.20;1.00;;;;;;5084050;28;20497;-51
2022/07/27 02:40:30;;;;;;;8.23;4.30;;;19.20;1.00;;;;;;5078940;28;20403;-51
2022/07/27 02:42:56;;;;;;;8.60;4.00;;;19.20;1.00;;;;;;5078587;28;20390;-59
2022/07/27 02:45:22;;;;;;;7.60;4.17;;;19.10;1.00;;;;;;5080717;28;20390;-52
2022/07/27 02:47:47;;;;;;;8.50;4.20;;;19.00;1.00;;;;;;5081137;28;20899;-54
2022/07/27 02:50:13;;;;;;;9.15;4.22;;;18.90;56.50;;;;;;5082031;28;20466;-52
2022/07/27 02:52:39;;;;;;;8.43;4.10;;;18.80;99.90;;;;;;5080224;28;20874;-57
2022/07/27 02:55:06;;;;;;;9.93;4.50;;;18.70;99.90;;;;;;5082363;28;20384;-53
2022/07/27 02:57:33;;;;;;;10.70;5.03;;;18.60;1.00;;;;;;5083453;28;20397;-51
2022/07/27 02:59:59;;;;;;;11.95;5.00;;;18.50;1.00;;;;;;5082057;28;20398;-58
2022/07/27 03:02:25;;;;;;;9.57;4.80;;;18.40;1.00;;;;;;5080281;28;20954;-53
2022/07/27 03:04:50;;;;;;;10.60;5.10;;;18.40;99.90;;;;;;5082031;28;20390;-52
2022/07/27 03:07:16;;;;;;;9.57;5.10;;;18.30;99.90;;;;;;5083319;28;20442;-54
2022/07/27 03:09:41;;;;;;;10.00;5.50;;;18.20;1.00;;;;;;5080912;28;20394;-52
2022/07/27 03:12:07;;;;;;;10.03;5.03;;;18.10;1.00;;;;;;5076755;28;20406;-53
2022/07/27 03:14:33;;;;;;;9.25;5.40;;;17.90;99.90;;;;;;5077892;28;20547;-53
2022/07/27 03:16:59;;;;;;;9.60;5.37;;;17.90;1.00;;;;;;5076833;28;20392;-59
2022/07/27 03:19:25;;;;;;;11.82;5.10;;;17.90;1.00;;;;;;5080906;28;20394;-55
2022/07/27 03:21:51;;;;;;;10.20;5.20;;;17.80;16.40;;;;;;5082137;28;21000;-54
2022/07/27 03:24:17;;;;;;;8.83;4.73;;;17.90;1.00;;;;;;5079831;28;20409;-54
2022/07/27 03:26:42;;;;;;;9.90;5.40;;;17.80;1.00;;;;;;5084229;28;20483;-54
2022/07/27 03:29:08;;;;;;;9.40;5.18;;;18.00;1.00;;;;;;5078812;28;20415;-54
2022/07/27 03:31:34;;;;;;;11.13;5.27;;;18.00;1.00;;;;;;5082623;28;20417;-53
2022/07/27 03:33:59;;;;;;;8.70;5.00;;;17.90;1.00;;;;;;5088187;28;20871;-58
2022/07/27 03:36:25;;;;;;;9.45;4.82;;;18.00;99.90;;;;;;5085782;28;20410;-52
2022/07/27 03:38:50;;;;;;;10.90;5.70;;;18.00;99.90;;;;;;5084409;28;20740;-51
2022/07/27 03:41:16;;;;;;;9.73;5.30;;;18.20;99.90;;;;;;5085502;28;20394;-51
2022/07/27 03:43:42;;;;;;;9.80;5.07;;;18.00;99.90;;;;;;5086874;28;20469;-51
2022/07/27 03:46:07;;;;;;;9.83;4.63;;;18.00;1.00;;;;;;5089003;28;21004;-52
2022/07/27 03:48:33;;;;;;;10.38;4.80;;;18.00;84.00;;;;;;5087361;28;20947;-51
2022/07/27 03:50:58;;;;;;;9.90;5.00;;;18.10;1.00;;;;;;5084108;28;20692;-59
2022/07/27 03:53:24;;;;;;;10.00;5.10;;;18.30;99.90;;;;;;5084647;28;20391;-51
2022/07/27 03:55:50;;;;;;;12.20;5.10;;;18.20;1.00;;;;;;5088238;28;20404;-51
2022/07/27 03:58:16;;;;;;;9.52;5.00;;;18.10;1.00;;;;;;5092399;28;20870;-51
2022/07/27 04:00:43;;;;;;;8.30;4.70;;;18.20;1.00;;;;;;5087023;28;20399;-51
2022/07/27 04:03:08;;;;;;;11.75;5.50;;;18.20;1.00;;;;;;5087499;28;20398;-53
2022/07/27 04:05:34;;;;;;;11.53;5.00;;;18.20;1.00;;;;;;5086017;28;20403;-55
2022/07/27 04:08:00;;;;;;;9.77;4.70;;;18.30;99.90;;;;;;5088004;28;20500;-52
2022/07/27 04:10:26;;;;;;;9.70;5.40;;;18.20;99.90;;;;;;5081982;28;20752;-51
2022/07/27 04:12:51;;;;;;;10.30;5.07;;;18.20;1.00;;;;;;5089662;28;20488;-51
2022/07/27 04:15:20;;;;;;;10.13;5.30;;;18.20;1.00;;;;;;5085037;28;20456;-51
2022/07/27 04:17:46;;;;;;;10.10;4.70;;;18.30;99.90;;;;;;5084144;28;20394;-53
2022/07/27 04:20:12;;;;;;;9.40;5.28;;;18.30;99.90;;;;;;5087961;28;20887;-52
2022/07/27 04:22:38;;;;;;;9.00;4.90;;;18.30;1.00;;;;;;5088670;28;20769;-51
2022/07/27 04:25:04;;;;;;;8.00;4.43;;;18.40;1.00;;;;;;5089231;28;20386;-51
2022/07/27 04:27:29;;;;;;;10.63;5.05;;;18.50;99.90;;;;;;5091108;28;20402;-53
2022/07/27 04:29:55;;;;;;;9.07;5.10;;;18.60;99.90;;;;;;5090691;28;20421;-59
2022/07/27 04:32:21;;;;;;;10.40;5.23;;;18.60;1.00;;;;;;5090806;28;20498;-55
2022/07/27 04:34:46;;;;;;;10.90;5.00;;;18.60;1.00;;;;;;5092025;28;20416;-53
2022/07/27 04:37:12;;;;;;;8.60;5.30;;;18.70;1.00;;;;;;5090062;28;20386;-55
2022/07/27 04:39:37;;;;;;;9.90;4.80;;;18.80;1.00;;;;;;5088306;28;20395;-59
2022/07/27 04:42:03;;;;;;;9.60;5.10;;;19.00;99.90;;;;;;5087983;28;20394;-56
2022/07/27 04:44:29;;;;;;;9.60;5.23;;;19.20;99.90;;;;;;5090943;28;20743;-53
2022/07/27 04:46:54;;;;;;;11.77;5.60;;;19.40;1.00;;;;;;5090281;28;20400;-53
2022/07/27 04:49:20;;;;;;;8.80;5.00;;;19.60;1.00;;;;;;5090785;28;22184;-53
2022/07/27 04:51:46;;;;;;;9.57;5.03;;;19.60;1.00;;;;;;5089250;28;20449;-56
2022/07/27 04:54:12;;;;;;;9.30;4.87;;;19.50;1.00;;;;;;5086694;28;20402;-54
2022/07/27 04:56:39;;;;;;;9.00;4.60;;;19.70;1.00;;;;;;5086516;28;20390;-54
2022/07/27 04:59:04;;;;;;;8.60;4.50;;;20.00;99.90;;;;;;5082569;28;20465;-51
2022/07/27 05:01:30;;;;;;;10.00;4.60;;;20.20;99.90;;;;;;5085759;28;20415;-51
2022/07/27 05:03:56;;;;;;;11.43;4.72;;;20.40;99.90;;;;;;5084001;28;20380;-54
2022/07/27 05:06:21;;;;;;;14.27;5.00;;;20.50;99.90;;;;;;5082474;28;20405;-53
2022/07/27 05:08:47;;;;;;;9.50;4.70;;;20.50;99.90;;;;;;5090038;28;20394;-51
2022/07/27 05:11:13;;;;;;;8.57;4.40;;;20.50;99.90;;;;;;5090509;28;20871;-53
2022/07/27 05:13:41;;;;;;;10.23;4.87;;;20.50;92.00;;;;;;5091458;28;20380;-53
2022/07/27 05:16:10;;;;;;;9.40;4.80;;;20.50;91.70;;;;;;5089163;28;20404;-53
2022/07/27 05:18:37;;;;;;;9.73;5.13;;;20.50;74.60;;;;;;5091490;28;20384;-54
2022/07/27 05:21:03;;;;;;;9.70;4.80;;;20.40;39.50;;;;;;5089787;28;20398;-53
2022/07/27 05:23:29;;;;;;;9.43;4.90;;;20.40;64.20;;;;;;5084906;28;20420;-53
2022/07/27 05:25:54;;;;;;;11.30;5.00;;;20.30;89.40;;;;;;5088025;28;20463;-53
2022/07/27 05:28:20;;;;;;;11.03;5.47;;;20.40;93.20;;;;;;5087120;28;20422;-55
2022/07/27 05:30:46;;;;;;;12.20;5.45;;;20.30;94.50;;;;;;5085758;28;20436;-53
2022/07/27 05:33:12;;;;;;;9.55;4.50;;;20.30;40.20;;;;;;5087419;28;20782;-54
2022/07/27 05:35:37;;;;;;;8.90;5.00;;;20.40;18.30;;;;;;5089275;28;20997;-53
2022/07/27 05:38:03;;;;;;;8.70;4.90;;;20.50;1.00;;;;;;5089674;28;20473;-54
2022/07/27 05:40:29;;;;;;;9.63;4.90;;;20.60;1.00;;;;;;5090626;28;20763;-53
2022/07/27 05:42:55;;;;;;;10.25;5.20;;;20.60;1.00;;;;;;5087044;28;20449;-54
2022/07/27 05:45:21;;;;;;;9.13;5.03;;;20.60;1.00;;;;;;5087296;28;20384;-53
2022/07/27 05:47:47;;;;;;;11.27;5.40;;;20.50;1.00;;;;;;5082655;28;20413;-53
2022/07/27 05:50:13;;;;;;;9.00;5.20;;;20.60;1.00;;;;;;5085996;28;20743;-54
2022/07/27 05:52:39;;;;;;;10.17;5.00;;;20.70;1.00;;;;;;5088724;28;20755;-54
2022/07/27 05:55:05;;;;;;;9.65;4.80;;;20.70;1.00;;;;;;5088094;28;20385;-53
2022/07/27 05:57:31;;;;;;;8.45;4.75;;;20.90;1.00;;;;;;5089681;28;20394;-53
2022/07/27 05:59:57;;;;;;;8.77;4.95;;;20.80;1.00;;;;;;5088787;28;20408;-55
2022/07/27 06:02:24;;;;;;;9.55;4.70;;;20.80;1.00;;;;;;5083928;28;20421;-53
2022/07/27 06:04:49;;;;;;;9.25;5.05;;;20.70;1.00;;;;;;5080948;28;20410;-54
2022/07/27 06:09:59;;;;;;;9.38;5.03;;;21.10;1.00;;;;;;5085953;28;20390;-56
2022/07/27 06:12:25;;;;;;;9.27;4.90;;;21.30;1.00;;;;;;5085985;28;20763;-53
2022/07/27 06:14:51;;;;;;;11.23;4.32;;;21.10;1.00;;;;;;5089935;28;20390;-53
2022/07/27 06:17:17;;;;;;;10.20;5.10;;;21.00;1.00;;;;;;5089676;28;20390;-54
2022/07/27 06:19:42;;;;;;;10.80;4.90;;;21.10;1.00;;;;;;5089444;28;20713;-53
2022/07/27 06:22:08;;;;;;;8.90;4.90;;;21.20;1.00;;;;;;5088963;28;20804;-54
2022/07/27 06:24:33;;;;;;;10.55;5.00;;;21.00;1.00;;;;;;5090616;28;20439;-54
2022/07/27 06:27:06;;;;;;;9.80;4.72;;;21.10;1.00;;;;;;5049368;28;20375;-55
2022/07/27 06:29:33;;;;;;;10.13;5.20;;;20.80;1.00;;;;;;5046627;28;20447;-55
2022/07/27 06:31:59;;;;;;;9.95;5.25;;;21.30;1.00;;;;;;5046353;28;20424;-58
2022/07/27 06:34:24;;;;;;;8.00;4.88;;;20.90;1.00;;;;;;5045629;28;20875;-55
2022/07/27 06:36:51;;;;;;;9.65;5.22;;;21.10;1.00;;;;;;5046065;28;20401;-55
2022/07/27 06:39:17;;;;;;;9.02;4.47;;;21.10;1.00;;;;;;5048086;28;20399;-55
2022/07/27 06:41:42;;;;;;;8.63;4.37;;;21.20;1.00;;;;;;5045957;28;20469;-55
2022/07/27 06:44:08;;;;;;;9.60;4.80;;;21.30;1.00;;;;;;5045485;28;20748;-55
2022/07/27 06:46:34;;;;;;;7.80;4.30;;;21.30;1.00;;;;;;5046275;28;20414;-54
2022/07/27 06:48:59;;;;;;;10.80;4.97;;;21.20;1.00;;;;;;5046042;28;20818;-58
2022/07/27 06:51:25;;;;;;;10.02;4.63;;;21.40;1.00;;;;;;5045413;28;20390;-54
2022/07/27 06:53:53;;;;;;;9.50;4.57;;;21.00;1.00;;;;;;5046332;28;20390;-54
2022/07/27 06:56:19;;;;;;;8.70;4.32;;;21.10;1.00;;;;;;5045175;28;20948;-55
2022/07/27 06:58:45;;;;;;;10.02;4.78;;;21.50;1.00;;;;;;5049766;28;20800;-56
2022/07/27 07:01:10;;;;;;;9.90;4.27;;;22.30;1.00;;;;;;5045939;28;20386;-53
2022/07/27 07:03:36;;;;;;;8.30;4.97;;;21.90;1.00;;;;;;5045933;28;20406;-53
2022/07/27 07:06:02;;;;;;;9.90;4.70;;;22.20;1.00;;;;;;5045327;28;20456;-57
2022/07/27 07:08:27;;;;;;;10.80;4.70;;;22.20;1.00;;;;;;5047508;28;20405;-52
2022/07/27 07:10:53;;;;;;;8.85;5.07;;;22.20;1.00;;;;;;5045708;28;20738;-53
2022/07/27 07:13:19;;;;;;;9.60;4.70;;;22.30;1.00;;;;;;5045096;28;20394;-53
2022/07/27 07:15:44;;;;;;;8.60;4.13;;;22.30;1.00;;;;;;5045807;28;20752;-53
2022/07/27 07:18:11;;;;;;;8.70;4.77;;;22.70;1.00;;;;;;5038594;28;20402;-53
2022/07/27 07:20:37;;;;;;;11.27;4.68;;;23.00;1.00;;;;;;5045715;28;20860;-53
2022/07/27 07:23:04;;;;;;;9.73;5.80;;;22.90;1.00;;;;;;5043920;28;20405;-56
2022/07/27 07:25:31;;;;;;;10.60;4.97;;;22.80;1.00;;;;;;5052243;28;20436;-53
2022/07/27 07:27:57;;;;;;;8.38;4.60;;;22.80;1.00;;;;;;5066646;28;20475;-53
2022/07/27 07:30:23;;;;;;;11.45;4.93;;;23.00;1.00;;;;;;5074543;28;20450;-56
2022/07/27 07:32:49;;;;;;;10.67;4.87;;;23.20;1.00;;;;;;5064863;28;20389;-53
2022/07/27 07:35:15;;;;;;;9.27;4.72;;;22.90;1.00;;;;;;5064396;28;20385;-53
2022/07/27 07:37:41;;;;;;;8.85;4.53;;;23.40;1.00;;;;;;5056030;28;20382;-54
2022/07/27 07:40:09;;;;;;;8.48;4.90;;;23.70;1.00;;;;;;5050812;28;20399;-53
2022/07/27 07:42:47;;;;;;;8.98;4.68;;;23.80;1.00;;;;;;5051875;28;20397;-55
2022/07/27 07:45:13;;;;;;;8.52;4.80;;;23.80;1.00;;;;;;5050902;28;20805;-55
2022/07/27 07:47:40;;;;;;;8.43;4.40;;;24.00;99.90;;;;;;5051648;28;20417;-55
2022/07/27 07:50:06;;;;;;;9.73;4.30;;;24.20;1.00;;;;;;5051066;28;20456;-55
2022/07/27 07:52:31;;;;;;;9.60;4.40;;;24.50;1.00;;;;;;5051893;28;20488;-56
2022/07/27 07:54:57;;;;;;;9.43;4.60;;;24.60;1.00;;;;;;5051711;28;20563;-55
2022/07/27 07:57:22;;;;;;;10.00;4.30;;;25.10;1.00;;;;;;5053411;28;21176;-55
2022/07/27 07:59:48;;;;;;;8.73;4.40;;;24.80;1.00;;;;;;5051383;28;20377;-55
2022/07/27 08:02:14;;;;;;;11.40;4.28;;;24.90;1.00;;;;;;5050889;28;20377;-55
2022/07/27 08:04:39;;;;;;;8.40;4.25;;;25.40;99.90;;;;;;5051405;28;20389;-55
2022/07/27 08:07:05;;;;;;;7.45;4.50;;;25.10;99.90;;;;;;5050559;28;20417;-55
2022/07/27 08:09:31;;;;;;;8.32;4.40;;;24.80;99.90;;;;;;5051668;28;20430;-55
2022/07/27 08:11:56;;;;;;;7.82;4.28;;;24.90;99.90;;;;;;5051345;28;20724;-55
2022/07/27 08:14:22;;;;;;;7.90;4.18;;;24.90;99.90;;;;;;5050700;28;20378;-55
2022/07/27 08:16:48;;;;;;;8.87;4.23;;;25.10;99.90;;;;;;5050184;28;20398;-55
2022/07/27 08:19:14;;;;;;;8.60;4.40;;;24.70;99.90;;;;;;5047918;28;20468;-55
2022/07/27 08:21:39;;;;;;;10.02;4.25;;;24.50;99.90;;;;;;5051192;28;21126;-56
2022/07/27 08:24:05;;;;;;;8.20;4.30;;;24.80;99.90;;;;;;5032365;28;20385;-55
2022/07/27 08:26:31;;;;;;;7.60;3.97;;;25.60;1.00;;;;;;5050940;28;20479;-55
2022/07/27 08:28:56;;;;;;;9.00;4.00;;;26.20;99.90;;;;;;5055842;28;20378;-55
2022/07/27 08:31:22;;;;;;;8.65;4.10;;;25.90;99.90;;;;;;5050375;28;20378;-55
2022/07/27 08:33:47;;;;;;;8.77;4.25;;;25.60;99.90;;;;;;5051080;28;20390;-56
2022/07/27 08:36:13;;;;;;;10.75;4.40;;;25.50;99.90;;;;;;5050243;28;20382;-55
2022/07/27 08:38:39;;;;;;;8.30;4.30;;;25.20;99.90;;;;;;5050706;28;20735;-55
2022/07/27 08:41:07;;;;;;;7.30;4.00;;;25.40;99.90;;;;;;5050577;28;20851;-58
2022/07/27 08:43:32;;;;;;;8.70;4.40;;;25.50;99.90;;;;;;5044994;28;20932;-55
2022/07/27 08:45:59;;;;;;;10.40;4.28;;;26.00;99.90;;;;;;5050749;28;20409;-55
2022/07/27 08:48:26;;;;;;;7.53;4.30;;;;;;;;;;5049080;28;20393;-55
2022/07/27 08:50:53;;;;;;;8.38;4.57;;;27.70;99.90;;;;;;5044260;28;20378;-56
2022/07/27 08:53:21;;;;;;;9.25;4.60;;;27.60;99.90;;;;;;5043383;28;20380;-55
2022/07/27 08:55:47;;;;;;;9.00;4.70;;;27.50;99.90;;;;;;5048629;28;20417;-57
2022/07/27 08:58:14;;;;;;;10.00;4.35;;;27.50;99.90;;;;;;5048544;28;20499;-55
2022/07/27 09:00:42;;;;;;;7.50;4.30;;;27.20;99.90;;;;;;5049389;28;20747;-56
2022/07/27 09:03:11;;;;;;;8.00;4.30;;;27.00;99.90;;;;;;5048738;28;20384;-56
2022/07/27 09:06:03;;;;;;;8.00;3.90;;;27.50;99.90;;;;;;5050326;28;20413;-59
2022/07/27 09:08:30;;;;;;;7.40;3.90;;;27.70;99.90;;;;;;5046368;28;20750;-56
2022/07/27 09:10:58;;;;;;;9.73;5.10;;;27.10;99.90;;;;;;5050286;28;20411;-55
2022/07/27 09:13:27;;;;;;;8.70;4.90;;;26.60;99.90;;;;;;5049240;28;21208;-55
2022/07/27 09:15:59;;;;;;;8.80;4.88;;;26.30;99.90;;;;;;5049933;28;20400;-55
2022/07/27 09:18:28;;;;;;;8.40;3.60;;;27.30;99.90;;;;;;5048811;28;20530;-55
2022/07/27 09:21:10;;;;;;;8.33;4.20;;;;;;;;;;5048559;28;20814;-55
2022/07/27 09:23:37;;;;;;;7.78;4.20;;;32.00;99.90;;;;;;5047065;28;20428;-53
2022/07/27 09:26:18;;;;;;;11.27;4.18;;;31.80;99.90;;;;;;5048908;28;20475;-62
2022/07/27 09:28:44;;;;;;;7.60;4.07;;;32.90;99.90;;;;;;5053789;28;20435;-53
2022/07/27 09:31:14;;;;;;;7.00;4.20;;;33.70;99.90;;;;;;5049477;28;20374;-50
2022/07/27 09:33:48;;;;;;;9.32;5.50;;;33.30;99.90;;;;;;5049606;28;20598;-52
2022/07/27 09:36:16;;;;;;;9.15;5.35;;;32.70;99.90;;;;;;5047302;28;21779;-52
2022/07/27 09:38:50;;;;;;;9.68;5.10;;;33.00;99.90;;;;;;5047323;28;20393;-53
2022/07/27 09:41:16;;;;;;;7.90;4.70;;;33.50;99.90;;;;;;5045840;28;20428;-52
2022/07/27 09:43:59;;;;;;;8.55;5.03;;;33.60;99.90;;;;;;5049150;28;20409;-52
2022/07/27 09:46:29;;;;;;;8.75;5.28;;;33.50;99.90;;;;;;5046338;28;20520;-52
2022/07/27 09:48:55;;;;;;;8.77;4.53;;;33.80;99.90;;;;;;5044393;28;20423;-52
2022/07/27 09:51:24;;;;;;;10.80;5.50;;;33.20;99.90;;;;;;5044408;28;20409;-53
2022/07/27 09:53:50;;;;;;;8.17;5.30;;;33.40;99.90;;;;;;5048926;28;20390;-53
2022/07/27 09:56:16;;;;;;;9.90;5.50;;;33.60;99.90;;;;;;5044550;28;20407;-52
2022/07/27 09:58:54;;;;;;;8.60;5.00;;;34.20;99.90;;;;;;5048976;28;20744;-53
2022/07/27 10:01:31;;;;;;;7.50;5.78;;;35.90;99.90;;;;;;5047216;28;20433;-57
2022/07/27 10:04:00;;;;;;;8.35;5.95;;;36.60;99.90;;;;;;5046146;28;20413;-54
2022/07/27 10:06:27;;;;;;;7.82;5.53;;;36.00;99.90;;;;;;5045059;28;20433;-57
2022/07/27 10:08:54;;;;;;;7.75;6.07;;;36.40;99.90;;;;;;5048474;28;20432;-53
2022/07/27 10:11:21;;;;;;;7.22;4.40;;;35.50;99.90;;;;;;5047128;28;20504;-52
2022/07/27 10:13:49;;;;;;;9.10;5.07;;;34.00;99.90;;;;;;5047869;28;20424;-54
2022/07/27 10:16:33;;;;;;;8.98;4.90;;;34.20;99.90;;;;;;5046555;28;20397;-54
2022/07/27 10:19:12;;;;;;;8.02;3.80;;;35.40;99.90;;;;;;5042182;28;20886;-55
2022/07/27 10:21:42;;;;;;;7.15;3.80;;;36.10;99.90;;;;;;5044211;28;20409;-53
2022/07/27 10:24:31;;;;;;;7.50;3.42;;;36.40;99.90;;;;;;5045726;28;20389;-53
2022/07/27 10:26:57;;;;;;;7.20;3.70;;;36.20;99.90;;;;;;5051033;28;20428;-52
2022/07/27 10:29:23;;;;;;;7.00;3.53;;;36.30;99.90;;;;;;5046445;28;20461;-56
2022/07/27 10:31:51;;;;;;;8.90;5.32;;;34.80;99.90;;;;;;5048135;28;20457;-52
2022/07/27 10:34:35;;;;;;;8.18;5.68;;;33.50;99.90;;;;;;5046800;28;20429;-52
2022/07/27 10:37:14;;;;;;;9.93;4.43;;;32.10;99.90;;;;;;5044701;28;20906;-53
2022/07/27 10:39:45;;;;;;;6.90;4.60;;;31.90;99.90;;;;;;5049144;28;20385;-53
2022/07/27 10:42:25;;;;;;;7.17;4.40;;;32.00;99.90;;;;;;5047987;28;20385;-52
2022/07/27 10:45:02;;;;;;;7.78;4.80;;;32.30;99.90;;;;;;5048815;28;20821;-53
2022/07/27 10:47:32;;;;;;;8.00;5.00;;;32.10;99.90;;;;;;5048634;28;20377;-52
2022/07/27 10:50:28;;;;;;;9.75;5.40;;;31.00;99.90;;;;;;5048993;28;20475;-58
2022/07/27 10:52:58;;;;;;;8.10;4.70;;;29.70;99.90;;;;;;5029393;28;20909;-52
2022/07/27 10:55:30;;;;;;;7.60;4.90;;;29.90;99.90;;;;;;5048392;28;20408;-52
2022/07/27 10:57:56;;;;;;;7.73;5.00;;;29.50;99.90;;;;;;5049897;28;20452;-52
2022/07/27 11:00:48;;;;;;;7.88;5.00;;;29.50;99.90;;;;;;5046040;28;20412;-52
2022/07/27 11:03:24;;;;;;;6.82;4.03;;;30.20;99.90;;;;;;5037877;28;20410;-52
2022/07/27 11:06:02;;;;;;;8.67;5.10;;;30.50;99.90;;;;;;5046639;28;20421;-52
2022/07/27 11:08:36;;;;;;;7.38;4.22;;;30.10;99.90;;;;;;5045523;28;20385;-52
2022/07/27 11:11:04;;;;;;;7.40;4.53;;;29.40;99.90;;;;;;5046794;28;20401;-52
2022/07/27 11:13:30;;;;;;;7.93;4.82;;;29.60;99.90;;;;;;5050740;28;20389;-52
2022/07/27 11:16:02;;;;;;;7.27;3.70;;;29.40;99.90;;;;;;5052502;28;20454;-52
2022/07/27 11:18:30;;;;;;;7.40;4.40;;;29.40;99.90;;;;;;5045023;28;20749;-53
2022/07/27 11:21:24;;;;;;;7.57;3.80;;;29.00;99.90;;;;;;5051262;28;20450;-52
2022/07/27 11:23:53;;;;;;;7.53;4.15;;;29.20;99.90;;;;;;5049348;28;20385;-52
2022/07/27 11:26:21;;;;;;;7.65;4.63;;;29.20;99.90;;;;;;5049850;28;20429;-52
2022/07/27 11:28:46;;;;;;;6.50;4.00;;;28.90;99.90;;;;;;5054336;28;20386;-52
2022/07/27 11:31:13;;;;;;;7.63;4.20;;;28.90;99.90;;;;;;5051434;28;20385;-52
2022/07/27 11:33:59;;;;;;;7.07;3.92;;;28.80;99.90;;;;;;5052658;28;20377;-52
2022/07/27 11:36:42;;;;;;;6.20;3.72;;;29.00;99.90;;;;;;5050301;28;20447;-53
2022/07/27 11:39:13;;;;;;;6.90;4.05;;;29.20;99.90;;;;;;5046245;28;20389;-60
2022/07/27 11:41:41;;;;;;;6.50;3.40;;;28.80;99.90;;;;;;5052106;28;20468;-55
2022/07/27 11:44:12;;;;;;;6.50;3.63;;;29.10;99.90;;;;;;5051531;28;20377;-60
2022/07/27 11:46:43;;;;;;;7.97;3.50;;;28.80;99.90;;;;;;5052120;28;20417;-52
2022/07/27 11:49:16;;;;;;;7.38;3.83;;;29.10;99.90;;;;;;5051328;28;20388;-59
2022/07/27 11:51:48;;;;;;;6.40;3.80;;;29.40;99.90;;;;;;5052173;28;20436;-52
2022/07/27 11:54:25;;;;;;;7.40;4.00;;;29.60;99.90;;;;;;5051540;28;20708;-52
2022/07/27 11:56:56;;;;;;;7.35;4.07;;;29.60;99.90;;;;;;5054992;28;20814;-59
2022/07/27 11:59:36;;;;;;;8.90;3.20;;;28.80;99.90;;;;;;5033571;28;20747;-52
2022/07/27 12:02:04;;;;;;;6.88;3.80;;;28.60;99.90;;;;;;5046021;28;20409;-51
2022/07/27 12:04:32;;;;;;;6.40;3.80;;;28.60;99.90;;;;;;5051395;28;20392;-52
2022/07/27 12:06:59;;;;;;;7.07;3.42;;;28.70;99.90;;;;;;5051408;28;20536;-52
2022/07/27 12:09:26;;;;;;;6.90;3.90;;;28.40;99.90;;;;;;5050668;28;20427;-53
2022/07/27 12:12:00;;;;;;;7.28;3.75;;;28.40;99.90;;;;;;5051258;28;20378;-52
2022/07/27 12:14:33;;;;;;;7.50;4.00;;;28.80;99.90;;;;;;5050171;28;21095;-52
2022/07/27 12:17:10;;;;;;;6.70;3.90;;;28.20;99.90;;;;;;5051380;28;20467;-52
2022/07/27 12:19:36;;;;;;;7.87;4.00;;;27.90;99.90;;;;;;5051268;28;20439;-53
2022/07/27 12:22:02;;;;;;;8.18;4.00;;;27.90;99.90;;;;;;5051445;28;20878;-53
2022/07/27 12:24:36;;;;;;;8.07;3.80;;;28.60;99.90;;;;;;5050201;28;20478;-52
2022/07/27 12:27:13;;;;;;;6.80;3.60;;;29.50;99.90;;;;;;5052202;28;20417;-52
2022/07/27 12:30:03;;;;;;;8.27;3.90;;;30.00;99.90;;;;;;5050923;28;20392;-54
2022/07/27 12:32:31;;;;;;;7.10;3.80;;;30.00;99.90;;;;;;5050415;28;20397;-52
2022/07/27 12:34:58;;;;;;;9.00;3.45;;;29.90;99.90;;;;;;5050770;28;20882;-52
2022/07/27 12:37:30;;;;;;;7.00;3.90;;;29.30;99.90;;;;;;5049645;28;20378;-52
2022/07/27 12:39:56;;;;;;;7.20;4.00;;;28.00;99.90;;;;;;5048096;28;20417;-52
2022/07/27 12:42:34;;;;;;;6.90;3.93;;;27.60;99.90;;;;;;5047615;28;20398;-52
2022/07/27 12:45:17;;;;;;;7.18;4.07;;;27.80;99.90;;;;;;5048576;28;20397;-53
2022/07/27 12:47:43;;;;;;;6.63;4.10;;;28.20;99.90;;;;;;5049001;28;20404;-53
2022/07/27 12:50:15;;;;;;;6.68;4.03;;;28.70;99.90;;;;;;5049531;28;20382;-62
2022/07/27 12:52:43;;;;;;;6.97;4.22;;;29.00;99.90;;;;;;5049584;28;20397;-53
2022/07/27 12:55:09;;;;;;;7.45;4.18;;;29.30;99.90;;;;;;5049379;28;20389;-61
2022/07/27 12:57:35;;;;;;;6.50;3.90;;;29.50;99.90;;;;;;5050095;28;20370;-53
2022/07/27 13:00:07;;;;;;;8.43;4.00;;;29.40;99.90;;;;;;5049305;28;20386;-53
2022/07/27 13:02:32;;;;;;;6.50;3.45;;;29.00;99.90;;;;;;5046856;28;20969;-56